Time;durP1;ratioP1;P1;durP2;ratioP2;P2;SDS_P1;SDS_P2;PMS_P1;PMS_P2;Temp;Humidity;BMP_temperature;BMP_pressure;BME280_temperature;BME280_humidity;BME280_pressure;Samples;Min_cycle;Max_cycle;Signal;HPM_P1;HPM_P2
2022/03/11 00:00:32;;;;;;;6.32;4.50;;;;;;;;;;7378070;19;20131;-45
2022/03/11 00:03:02;;;;;;;8.95;5.32;;;;;;;;;;7374825;19;20224;-45
2022/03/11 00:05:32;;;;;;;8.38;5.40;;;;;;;;;;7372646;19;20165;-45
2022/03/11 00:08:01;;;;;;;7.68;4.72;;;;;;;;;;7365610;19;20493;-45
2022/03/11 00:10:36;;;;;;;8.40;5.25;;;;;;;;;;7377610;19;20167;-45
2022/03/11 00:13:05;;;;;;;8.70;5.60;;;;;;;;;;7371358;19;20770;-45
2022/03/11 00:15:35;;;;;;;9.65;5.05;;;;;;;;;;7371577;19;20135;-45
2022/03/11 00:18:04;;;;;;;9.45;5.72;;;;;;;;;;7368475;19;20128;-45
2022/03/11 00:20:34;;;;;;;7.38;4.85;;;;;;;;;;7368944;19;20228;-45
2022/03/11 00:23:06;;;;;;;9.95;5.38;;;;;;;;;;7374163;19;20131;-45
2022/03/11 00:25:38;;;;;;;8.77;4.90;;;;;;;;;;7366691;19;20149;-44
2022/03/11 00:28:08;;;;;;;9.50;5.47;;;;;;;;;;7373555;19;20635;-44
2022/03/11 00:30:37;;;;;;;10.20;6.45;;;;;;;;;;7367334;19;20232;-45
2022/03/11 00:33:07;;;;;;;10.38;6.05;;;;;;;;;;7369023;19;20167;-44
2022/03/11 00:35:42;;;;;;;8.10;6.18;;;;;;;;;;7369811;19;20708;-45
2022/03/11 00:38:12;;;;;;;9.55;6.80;;;;;;;;;;7372960;19;20142;-44
2022/03/11 00:40:46;;;;;;;12.02;5.60;;;;;;;;;;7371409;19;20127;-46
2022/03/11 00:43:16;;;;;;;11.70;6.45;;;;;;;;;;7370866;19;20131;-43
2022/03/11 00:45:48;;;;;;;10.57;6.60;;;;;;;;;;7369604;19;20166;-45
2022/03/11 00:48:18;;;;;;;10.15;6.90;;;;;;;;;;7364699;19;20136;-44
2022/03/11 00:50:47;;;;;;;11.10;6.72;;;;;;;;;;7374289;19;20147;-45
2022/03/11 00:53:17;;;;;;;13.00;7.20;;;;;;;;;;7374430;19;20124;-43
2022/03/11 00:55:49;;;;;;;12.40;7.72;;;;;;;;;;7369553;19;21429;-45
2022/03/11 00:58:21;;;;;;;12.73;7.85;;;;;;;;;;7367729;19;20949;-43
2022/03/11 01:00:53;;;;;;;9.55;6.22;;;;;;;;;;7372904;19;20279;-44
2022/03/11 01:03:23;;;;;;;12.32;6.90;;;;;;;;;;7379031;19;20491;-46
2022/03/11 01:05:52;;;;;;;10.57;6.72;;;;;;;;;;7375659;19;20131;-47
2022/03/11 01:08:22;;;;;;;9.55;7.53;;;;;;;;;;7379235;19;20143;-45
2022/03/11 01:10:54;;;;;;;12.20;7.70;;;;;;;;;;7378233;19;20127;-44
2022/03/11 01:13:28;;;;;;;13.55;7.68;;;;;;;;;;7379130;19;20141;-45
2022/03/11 01:15:58;;;;;;;12.30;7.38;;;;;;;;;;7378794;19;20128;-44
2022/03/11 01:18:28;;;;;;;15.25;8.63;;;;;;;;;;7373132;19;20861;-44
2022/03/11 01:20:58;;;;;;;12.13;8.10;;;;;;;;;;7373290;19;20124;-45
2022/03/11 01:23:30;;;;;;;11.20;7.57;;;;;;;;;;7379489;19;20489;-44
2022/03/11 01:26:02;;;;;;;14.45;8.85;;;;;;;;;;7372758;19;20131;-45
2022/03/11 01:28:34;;;;;;;11.65;8.25;;;;;;;;;;7374240;19;20796;-45
2022/03/11 01:31:06;;;;;;;10.27;6.88;;;;;;;;;;7375686;19;20144;-44
2022/03/11 01:33:36;;;;;;;11.70;7.63;;;;;;;;;;7377985;19;20215;-44
2022/03/11 01:36:05;;;;;;;13.05;8.52;;;;;;;;;;7372454;19;20147;-43
2022/03/11 01:38:37;;;;;;;14.95;8.70;;;;;;;;;;7373730;19;20128;-45
2022/03/11 01:41:12;;;;;;;12.10;8.82;;;;;;;;;;7377784;19;20132;-45
2022/03/11 01:43:55;;;;;;;18.20;9.95;;;;;;;;;;7379531;19;20251;-45
2022/03/11 01:46:28;;;;;;;13.55;9.35;;;;;;;;;;7368599;19;20732;-44
2022/03/11 01:48:57;;;;;;;16.38;10.13;;;;;;;;;;7377565;19;20146;-44
2022/03/11 01:51:29;;;;;;;12.07;8.77;;;;;;;;;;7377348;19;20146;-44
2022/03/11 01:53:59;;;;;;;16.10;9.50;;;;;;;;;;7376869;19;20131;-44
2022/03/11 01:56:31;;;;;;;15.90;11.65;;;;;;;;;;7374891;19;20143;-44
2022/03/11 01:59:03;;;;;;;12.73;8.82;;;;;;;;;;7377894;19;20590;-44
2022/03/11 02:01:36;;;;;;;13.50;9.70;;;;;;;;;;7370567;19;20164;-45
2022/03/11 02:04:10;;;;;;;15.50;9.68;;;;;;;;;;7379040;19;20475;-44
2022/03/11 02:06:42;;;;;;;12.02;8.65;;;;;;;;;;7375697;19;20144;-44
2022/03/11 02:09:11;;;;;;;17.02;10.45;;;;;;;;;;7374851;19;20587;-44
2022/03/11 02:11:44;;;;;;;18.02;8.93;;;;;;;;;;7376661;19;20139;-45
2022/03/11 02:14:14;;;;;;;16.42;11.05;;;;;;;;;;7372719;19;20207;-45
2022/03/11 02:16:43;;;;;;;15.70;9.95;;;;;;;;;;7371179;19;20210;-45
2022/03/11 02:19:18;;;;;;;14.55;9.98;;;;;;;;;;7373708;19;20478;-44
2022/03/11 02:21:51;;;;;;;20.48;11.65;;;;;;;;;;7378977;19;20131;-46
2022/03/11 02:24:28;;;;;;;17.73;10.52;;;;;;;;;;7375530;19;20135;-46
2022/03/11 02:26:58;;;;;;;13.35;10.10;;;;;;;;;;7371090;19;20131;-43
2022/03/11 02:29:31;;;;;;;22.30;10.90;;;;;;;;;;7372578;19;20615;-44
2022/03/11 02:32:03;;;;;;;17.50;10.20;;;;;;;;;;7373631;19;20178;-44
2022/03/11 02:34:32;;;;;;;18.30;11.25;;;;;;;;;;7362281;19;20913;-45
2022/03/11 02:37:04;;;;;;;21.83;11.30;;;;;;;;;;7375935;19;20136;-46
2022/03/11 02:39:42;;;;;;;17.60;11.30;;;;;;;;;;7367698;19;20597;-44
2022/03/11 02:42:11;;;;;;;17.30;10.90;;;;;;;;;;7373986;19;20681;-44
2022/03/11 02:44:46;;;;;;;20.55;11.88;;;;;;;;;;7371634;19;20141;-45
2022/03/11 02:47:15;;;;;;;22.70;12.25;;;;;;;;;;7371161;19;20169;-44
2022/03/11 02:49:45;;;;;;;17.08;11.43;;;;;;;;;;7369068;19;20149;-44
2022/03/11 02:52:14;;;;;;;17.65;11.60;;;;;;;;;;7376252;19;20124;-44
2022/03/11 02:54:46;;;;;;;18.85;12.60;;;;;;;;;;7368614;19;20171;-44
2022/03/11 02:57:16;;;;;;;22.13;13.45;;;;;;;;;;7374415;19;20498;-44
2022/03/11 02:59:46;;;;;;;19.27;13.02;;;;;;;;;;7373049;19;20528;-45
2022/03/11 03:02:16;;;;;;;21.52;13.40;;;;;;;;;;7368242;19;20787;-44
2022/03/11 03:04:45;;;;;;;21.15;12.40;;;;;;;;;;7371693;19;20170;-44
2022/03/11 03:07:15;;;;;;;19.08;12.25;;;;;;;;;;7376928;19;20551;-45
2022/03/11 03:09:47;;;;;;;19.50;11.40;;;;;;;;;;7366803;19;20134;-44
2022/03/11 03:12:17;;;;;;;20.45;12.68;;;;;;;;;;7370764;19;20128;-44
2022/03/11 03:14:46;;;;;;;16.92;11.20;;;;;;;;;;7371020;19;20128;-44
2022/03/11 03:17:18;;;;;;;20.20;11.93;;;;;;;;;;7370964;19;20602;-45
2022/03/11 03:19:47;;;;;;;20.30;12.25;;;;;;;;;;7370828;19;20835;-44
2022/03/11 03:22:19;;;;;;;19.58;12.98;;;;;;;;;;7373906;19;20139;-45
2022/03/11 03:24:52;;;;;;;20.65;12.30;;;;;;;;;;7369760;19;20135;-44
2022/03/11 03:27:21;;;;;;;18.60;12.60;;;;;;;;;;7374726;19;20130;-45
2022/03/11 03:29:51;;;;;;;20.40;12.43;;;;;;;;;;7371129;19;20123;-45
2022/03/11 03:32:20;;;;;;;21.38;13.88;;;;;;;;;;7371326;19;20132;-44
2022/03/11 03:34:51;;;;;;;22.65;12.38;;;;;;;;;;7373008;19;20181;-46
2022/03/11 03:37:23;;;;;;;21.45;14.85;;;;;;;;;;7372548;19;20154;-46
2022/03/11 03:39:55;;;;;;;22.55;13.75;;;;;;;;;;7372836;19;20803;-44
2022/03/11 03:42:27;;;;;;;23.13;13.93;;;;;;;;;;7369081;19;20748;-43
2022/03/11 03:44:57;;;;;;;23.90;13.70;;;;;;;;;;7374445;19;20132;-43
2022/03/11 03:47:28;;;;;;;25.65;13.38;;;;;;;;;;7368805;19;20139;-44
2022/03/11 03:49:57;;;;;;;21.25;13.77;;;;;;;;;;7373629;19;20165;-46
2022/03/11 03:52:28;;;;;;;22.20;12.95;;;;;;;;;;7370716;19;20463;-45
2022/03/11 03:55:02;;;;;;;23.65;14.40;;;;;;;;;;7374000;19;20139;-44
2022/03/11 03:57:32;;;;;;;22.20;14.55;;;;;;;;;;7375240;19;20155;-46
2022/03/11 04:00:07;;;;;;;21.27;13.38;;;;;;;;;;7373489;19;20669;-46
2022/03/11 04:02:47;;;;;;;26.63;13.57;;;;;;;;;;7375985;19;20123;-44
2022/03/11 04:05:16;;;;;;;18.58;12.35;;;;;;;;;;7371755;19;20609;-44
2022/03/11 04:07:47;;;;;;;24.20;14.23;;;;;;;;;;7373151;19;20232;-44
2022/03/11 04:10:22;;;;;;;21.05;13.85;;;;;;;;;;7375038;19;20123;-44
2022/03/11 04:12:54;;;;;;;20.83;13.30;;;;;;;;;;7374705;19;20142;-45
2022/03/11 04:15:24;;;;;;;22.60;13.52;;;;;;;;;;7365249;19;20136;-44
2022/03/11 04:17:56;;;;;;;20.48;13.45;;;;;;;;;;7367991;19;20127;-44
2022/03/11 04:20:26;;;;;;;25.17;14.18;;;;;;;;;;7369709;19;20139;-45
2022/03/11 04:22:56;;;;;;;17.23;12.85;;;;;;;;;;7372561;19;20127;-44
2022/03/11 04:25:31;;;;;;;22.77;14.10;;;;;;;;;;7371520;19;20211;-45
2022/03/11 04:28:04;;;;;;;24.58;12.73;;;;;;;;;;7370190;19;20134;-44
2022/03/11 04:30:33;;;;;;;18.65;12.57;;;;;;;;;;7366041;19;20136;-45
2022/03/11 04:33:03;;;;;;;20.80;13.65;;;;;;;;;;7368325;19;20218;-45
2022/03/11 04:35:35;;;;;;;21.23;14.00;;;;;;;;;;7370757;19;20152;-43
2022/03/11 04:38:04;;;;;;;22.55;13.48;;;;;;;;;;7380193;19;20156;-44
2022/03/11 04:40:37;;;;;;;18.15;12.18;;;;;;;;;;7380044;19;20123;-43
2022/03/11 04:43:08;;;;;;;23.90;13.05;;;;;;;;;;7381390;19;20492;-44
2022/03/11 04:45:43;;;;;;;21.38;13.15;;;;;;;;;;7374315;19;20132;-44
2022/03/11 04:48:13;;;;;;;24.10;13.90;;;;;;;;;;7378257;19;20135;-44
2022/03/11 04:50:43;;;;;;;24.35;13.70;;;;;;;;;;7373475;19;20639;-44
2022/03/11 04:53:12;;;;;;;21.95;13.20;;;;;;;;;;7373005;19;20136;-45
2022/03/11 04:55:45;;;;;;;19.30;12.43;;;;;;;;;;7377604;19;20187;-44
2022/03/11 04:58:14;;;;;;;18.40;11.77;;;;;;;;;;7379834;19;20135;-46
2022/03/11 05:00:46;;;;;;;20.00;12.70;;;;;;;;;;7369365;19;20139;-44
2022/03/11 05:03:18;;;;;;;21.70;11.93;;;;;;;;;;7380891;19;20131;-45
2022/03/11 05:05:49;;;;;;;23.02;12.25;;;;;;;;;;7376934;19;20483;-45
2022/03/11 05:08:19;;;;;;;18.30;11.48;;;;;;;;;;7381357;19;20271;-45
2022/03/11 05:10:53;;;;;;;21.80;12.75;;;;;;;;;;7374900;19;20138;-44
2022/03/11 05:13:22;;;;;;;22.38;12.32;;;;;;;;;;7375869;19;20726;-45
2022/03/11 05:15:52;;;;;;;18.60;11.52;;;;;;;;;;7377256;19;20165;-45
2022/03/11 05:18:22;;;;;;;20.75;11.80;;;;;;;;;;7377647;19;20658;-45
2022/03/11 05:20:51;;;;;;;20.63;12.73;;;;;;;;;;7379180;19;20142;-44
2022/03/11 05:23:21;;;;;;;17.17;11.20;;;;;;;;;;7378718;19;20204;-45
2022/03/11 05:25:53;;;;;;;20.05;11.18;;;;;;;;;;7377694;19;20497;-46
2022/03/11 05:28:27;;;;;;;18.90;12.00;;;;;;;;;;7381553;19;20736;-44
2022/03/11 05:30:57;;;;;;;22.00;13.18;;;;;;;;;;7371252;19;20146;-44
2022/03/11 05:33:29;;;;;;;15.00;11.05;;;;;;;;;;7379353;19;20143;-44
2022/03/11 05:35:58;;;;;;;16.95;10.88;;;;;;;;;;7364674;19;20642;-44
2022/03/11 05:38:30;;;;;;;18.77;10.98;;;;;;;;;;7367028;19;20127;-45
2022/03/11 05:41:03;;;;;;;17.00;10.23;;;;;;;;;;7368895;19;20195;-44
2022/03/11 05:43:36;;;;;;;18.35;11.15;;;;;;;;;;7379052;19;20625;-44
2022/03/11 05:46:06;;;;;;;18.42;11.65;;;;;;;;;;7375928;19;20135;-44
2022/03/11 05:48:38;;;;;;;14.55;9.80;;;;;;;;;;7363029;19;20771;-43
2022/03/11 05:51:12;;;;;;;22.05;12.65;;;;;;;;;;7376526;19;20547;-44
2022/03/11 05:53:42;;;;;;;24.13;11.80;;;;;;;;;;7364343;19;21147;-44
2022/03/11 05:56:20;;;;;;;19.10;11.90;;;;;;;;;;7361473;19;20133;-44
2022/03/11 05:58:50;;;;;;;21.67;11.82;;;;;;;;;;7365349;19;21728;-44
2022/03/11 06:01:22;;;;;;;20.52;11.50;;;;;;;;;;7377596;19;20611;-44
2022/03/11 06:03:52;;;;;;;19.67;12.52;;;;;;;;;;7366231;19;20472;-44
2022/03/11 06:06:24;;;;;;;16.60;9.90;;;;;;;;;;7370374;19;20477;-44
2022/03/11 06:08:53;;;;;;;17.20;11.00;;;;;;;;;;7377245;19;20519;-44
2022/03/11 06:11:28;;;;;;;19.85;11.32;;;;;;;;;;7376571;19;20215;-44
2022/03/11 06:13:58;;;;;;;15.02;9.88;;;;;;;;;;7374991;19;21105;-44
2022/03/11 06:16:32;;;;;;;18.17;11.10;;;;;;;;;;7371850;19;20651;-44
2022/03/11 06:19:04;;;;;;;16.80;10.32;;;;;;;;;;7369488;19;20218;-44
2022/03/11 06:21:37;;;;;;;14.73;10.50;;;;;;;;;;7364254;19;20618;-44
2022/03/11 06:24:07;;;;;;;15.63;9.60;;;;;;;;;;7378342;19;20135;-45
2022/03/11 06:26:41;;;;;;;17.38;9.07;;;;;;;;;;7368730;19;20124;-44
2022/03/11 06:29:12;;;;;;;15.57;9.50;;;;;;;;;;7373409;19;20605;-43
2022/03/11 06:31:42;;;;;;;19.45;10.02;;;;;;;;;;7367876;19;20128;-44
2022/03/11 06:34:12;;;;;;;16.98;10.07;;;;;;;;;;7370497;19;20216;-44
2022/03/11 06:36:41;;;;;;;14.63;8.18;;;;;;;;;;7376121;19;20692;-44
2022/03/11 06:39:14;;;;;;;19.27;9.35;;;;;;;;;;7379486;19;21140;-44
2022/03/11 06:41:46;;;;;;;13.15;8.88;;;;;;;;;;7370362;19;20226;-42
2022/03/11 06:44:18;;;;;;;15.80;9.43;;;;;;;;;;7377458;19;20123;-42
2022/03/11 06:46:50;;;;;;;13.15;8.38;;;;;;;;;;7369026;19;20130;-42
2022/03/11 06:49:20;;;;;;;14.25;8.70;;;;;;;;;;7362056;19;20135;-41
2022/03/11 06:51:54;;;;;;;13.82;8.60;;;;;;;;;;7362060;19;20130;-42
2022/03/11 06:54:24;;;;;;;16.25;8.77;;;;;;;;;;7368988;19;21432;-42
2022/03/11 06:56:58;;;;;;;12.95;8.30;;;;;;;;;;7360244;19;20163;-43
2022/03/11 06:59:28;;;;;;;13.98;7.20;;;;;;;;;;7365173;19;20228;-44
2022/03/11 07:01:58;;;;;;;11.38;8.10;;;;;;;;;;7368251;19;20132;-42
2022/03/11 07:04:31;;;;;;;11.95;7.30;;;;;;;;;;7356334;19;20139;-42
2022/03/11 07:07:01;;;;;;;11.60;7.20;;;;;;;;;;7377919;19;20153;-42
2022/03/11 07:09:33;;;;;;;11.00;6.88;;;;;;;;;;7374964;19;20506;-46
2022/03/11 07:12:08;;;;;;;10.30;7.20;;;;;;;;;;7377851;19;20198;-44
2022/03/11 07:14:39;;;;;;;12.95;7.28;;;;;;;;;;7369562;19;20136;-45
2022/03/11 07:17:14;;;;;;;10.88;7.20;;;;;;;;;;7370821;19;20138;-44
2022/03/11 07:19:43;;;;;;;12.88;7.78;;;;;;;;;;7371298;19;20514;-44
2022/03/11 07:22:13;;;;;;;9.68;6.50;;;;;;;;;;7372638;19;20132;-43
2022/03/11 07:24:44;;;;;;;9.95;7.05;;;;;;;;;;7373832;19;20134;-46
2022/03/11 07:27:16;;;;;;;11.77;7.50;;;;;;;;;;7373784;19;20160;-43
2022/03/11 07:29:48;;;;;;;9.60;6.40;;;;;;;;;;7377460;19;20122;-44
2022/03/11 07:32:20;;;;;;;10.43;6.60;;;;;;;;;;7377081;19;20135;-43
2022/03/11 07:34:52;;;;;;;14.85;7.07;;;;;;;;;;7376692;19;20158;-43
2022/03/11 07:37:22;;;;;;;10.77;6.70;;;;;;;;;;7375070;19;20136;-46
2022/03/11 07:39:51;;;;;;;13.07;7.10;;;;;;;;;;7377388;19;20621;-42
2022/03/11 07:42:24;;;;;;;9.00;6.35;;;;;;;;;;7369019;19;20131;-42
2022/03/11 07:44:54;;;;;;;9.07;7.00;;;;;;;;;;7365481;19;20139;-42
2022/03/11 07:47:23;;;;;;;11.95;6.82;;;;;;;;;;7366487;19;20164;-43
2022/03/11 07:49:55;;;;;;;8.57;6.20;;;;;;;;;;7371450;19;20140;-43
2022/03/11 07:52:25;;;;;;;10.13;6.30;;;;;;;;;;7373211;19;20127;-43
2022/03/11 07:54:57;;;;;;;11.27;6.90;;;;;;;;;;7367072;19;20147;-33
2022/03/11 07:57:29;;;;;;;11.83;7.43;;;;;;;;;;7370497;19;20374;-33
2022/03/11 08:00:04;;;;;;;14.88;10.68;;;;;;;;;;7372013;19;20377;-33
2022/03/11 08:02:44;;;;;;;16.17;8.50;;;;;;;;;;7374056;19;20645;-33
2022/03/11 08:05:14;;;;;;;11.60;8.52;;;;;;;;;;7369218;19;20143;-33
2022/03/11 08:07:47;;;;;;;13.27;8.13;;;;;;;;;;7372515;19;20124;-33
2022/03/11 08:10:16;;;;;;;10.07;7.28;;;;;;;;;;7367972;19;20130;-35
2022/03/11 08:12:50;;;;;;;14.80;7.93;;;;;;;;;;7370643;19;20135;-35
2022/03/11 08:15:23;;;;;;;11.90;7.68;;;;;;;;;;7366308;19;20240;-36
2022/03/11 08:17:57;;;;;;;12.77;8.05;;;;;;;;;;7367538;19;20606;-36
2022/03/11 08:20:27;;;;;;;12.90;8.85;;;;;;;;;;7367712;19;20135;-36
2022/03/11 08:22:57;;;;;;;11.93;7.53;;;;;;;;;;7371201;19;20598;-36
2022/03/11 08:25:29;;;;;;;12.40;7.78;;;;;;;;;;7369005;19;20675;-36
2022/03/11 08:28:04;;;;;;;13.15;7.68;;;;;;;;;;7374548;19;20146;-36
2022/03/11 08:30:36;;;;;;;13.80;8.63;;;;;;;;;;7374801;19;20132;-36
2022/03/11 08:33:10;;;;;;;11.43;8.70;;;;;;;;;;7368081;19;20143;-36
2022/03/11 08:35:40;;;;;;;15.40;9.30;;;;;;;;;;7372139;19;20847;-36
2022/03/11 08:38:11;;;;;;;12.20;8.93;;;;;;;;;;7376155;19;20387;-36
2022/03/11 08:40:44;;;;;;;13.03;9.97;;;;;;;;;;7372319;19;20368;-36
2022/03/11 08:43:19;;;;;;;13.07;9.73;;;;;;;;;;7373765;19;20372;-36
2022/03/11 08:45:48;;;;;;;12.50;9.37;;;;;;;;;;7373368;19;20491;-37
2022/03/11 08:48:18;;;;;;;13.10;9.10;;;;;;;;;;7368969;19;20423;-36
2022/03/11 08:50:48;;;;;;;11.70;8.10;;;;;;;;;;7369950;19;20358;-36
2022/03/11 08:53:21;;;;;;;11.33;9.10;;;;;;;;;;7374708;19;20424;-38
2022/03/11 08:55:51;;;;;;;13.93;9.80;;;;;;;;;;7374442;19;20757;-37
2022/03/11 08:58:23;;;;;;;15.30;9.20;;;;;;;;;;7370120;19;20759;-35
2022/03/11 09:00:55;;;;;;;9.80;8.10;;;;;;;;;;7373538;19;20454;-35
2022/03/11 09:03:25;;;;;;;11.77;8.67;;;;;;;;;;7371733;19;20387;-35
2022/03/11 09:05:55;;;;;;;12.60;9.20;;;;;;;;;;7375732;19;20958;-35
2022/03/11 09:08:26;;;;;;;11.00;8.60;;;;;;;;;;7372310;19;20376;-35
2022/03/11 09:10:56;;;;;;;11.07;8.40;;;;;;;;;;7364879;19;20376;-35
2022/03/11 09:13:28;;;;;;;12.43;8.43;;;;;;;;;;7370883;19;21029;-35
2022/03/11 09:15:58;;;;;;;11.37;9.10;;;;;;;;;;7368909;19;20380;-35
2022/03/11 09:18:30;;;;;;;11.73;9.37;;;;;;;;;;7370379;19;20464;-35
2022/03/11 09:21:02;;;;;;;13.50;9.73;;;;;;;;;;7371180;19;20372;-37
2022/03/11 09:23:38;;;;;;;11.00;8.97;;;;;;;;;;7376965;19;20909;-38
2022/03/11 09:26:08;;;;;;;12.93;10.40;;;;;;;;;;7378763;19;20380;-37
2022/03/11 09:28:43;;;;;;;15.07;10.33;;;;;;;;;;7377499;19;20375;-35
2022/03/11 09:31:12;;;;;;;11.70;9.27;;;;;;;;;;7379775;19;20379;-35
2022/03/11 09:33:42;;;;;;;12.17;9.20;;;;;;;;;;7376487;19;20392;-35
2022/03/11 09:36:12;;;;;;;11.90;8.13;;;;;;;;;;7377457;19;20380;-37
2022/03/11 09:38:42;;;;;;;11.40;8.80;;;;;;;;;;7382501;19;20450;-36
2022/03/11 09:41:12;;;;;;;12.60;8.77;;;;;;;;;;7381124;19;20360;-37
2022/03/11 09:43:44;;;;;;;11.30;9.03;;;;;;;;;;7373971;19;20372;-35
2022/03/11 09:46:16;;;;;;;11.33;9.20;;;;;;;;;;7371148;19;20443;-37
2022/03/11 09:48:46;;;;;;;13.53;9.60;;;;;;;;;;7370709;19;21072;-37
2022/03/11 09:51:17;;;;;;;12.00;9.30;;;;;;;;;;7372401;19;20372;-37
2022/03/11 09:53:48;;;;;;;11.57;8.50;;;;;;;;;;7377619;19;20417;-36
2022/03/11 09:56:20;;;;;;;8.63;7.73;;;;;;;;;;7372399;19;20372;-37
2022/03/11 09:58:52;;;;;;;12.13;9.10;;;;;;;;;;7366066;19;20356;-36
2022/03/11 10:01:22;;;;;;;12.03;9.77;;;;;;;;;;7365520;19;20416;-37
2022/03/11 10:03:51;;;;;;;10.97;8.67;;;;;;;;;;7365800;19;20459;-36
2022/03/11 10:06:39;;;;;;;10.37;8.50;;;;;;;;;;7371100;19;20735;-36
2022/03/11 10:09:09;;;;;;;11.97;8.40;;;;;;;;;;7375546;19;20516;-36
2022/03/11 10:11:40;;;;;;;12.03;8.30;;;;;;;;;;7375277;19;20371;-37
2022/03/11 10:14:15;;;;;;;9.80;8.47;;;;;;;;;;7370910;19;20491;-36
2022/03/11 10:16:45;;;;;;;10.10;8.60;;;;;;;;;;7372462;19;20375;-37
2022/03/11 10:19:16;;;;;;;11.20;9.20;;;;;;;;;;7378179;19;20369;-37
2022/03/11 10:21:50;;;;;;;11.67;8.53;;;;;;;;;;7370357;19;20383;-38
2022/03/11 10:24:22;;;;;;;12.40;9.07;;;;;;;;;;7371051;19;20751;-38
2022/03/11 10:26:53;;;;;;;11.50;9.37;;;;;;;;;;7377586;19;20368;-36
2022/03/11 10:29:27;;;;;;;12.03;8.73;;;;;;;;;;7376058;19;20421;-37
2022/03/11 10:32:03;;;;;;;9.90;8.23;;;;;;;;;;7376245;19;20392;-37
2022/03/11 10:34:33;;;;;;;9.40;8.27;;;;;;;;;;7372463;19;20450;-36
2022/03/11 10:37:06;;;;;;;10.33;9.00;;;;;;;;;;7370632;19;20364;-36
2022/03/11 10:39:37;;;;;;;11.03;8.80;;;;;;;;;;7376642;19;20372;-36
2022/03/11 10:42:17;;;;;;;8.47;7.57;;;;;;;;;;7370011;19;20751;-38
2022/03/11 10:45:03;;;;;;;9.87;8.00;;;;;;;;;;7375739;19;20372;-37
2022/03/11 10:47:34;;;;;;;10.23;9.10;;;;;;;;;;7371876;19;20364;-37
2022/03/11 10:50:11;;;;;;;11.03;9.03;;;;;;;;;;7376402;19;20769;-38
2022/03/11 10:52:43;;;;;;;12.17;9.50;;;;;;;;;;7369433;19;20372;-38
2022/03/11 10:55:23;;;;;;;13.90;9.40;;;;;;;;;;7373781;19;20407;-37
2022/03/11 10:57:55;;;;;;;12.30;9.93;;;;;;;;;;7377032;19;20376;-37
2022/03/11 11:00:31;;;;;;;14.33;9.30;;;;;;;;;;7374441;19;20379;-37
2022/03/11 11:03:01;;;;;;;10.73;9.47;;;;;;;;;;7359813;19;20380;-37
2022/03/11 11:05:31;;;;;;;10.40;9.17;;;;;;;;;;7372784;19;20970;-37
2022/03/11 11:08:02;;;;;;;10.47;9.10;;;;;;;;;;7375931;19;20376;-37
2022/03/11 11:10:32;;;;;;;12.40;8.90;;;;;;;;;;7373134;19;20400;-37
2022/03/11 11:13:06;;;;;;;9.90;8.80;;;;;;;;;;7372925;19;20380;-36
2022/03/11 11:15:40;;;;;;;11.23;9.10;;;;;;;;;;7367284;19;20760;-38
2022/03/11 11:18:15;;;;;;;10.50;9.20;;;;;;;;;;7375706;19;20439;-38
2022/03/11 11:20:50;;;;;;;12.17;9.83;;;;;;;;;;7369153;19;21088;-39
2022/03/11 11:23:22;;;;;;;11.20;8.70;;;;;;;;;;7369332;19;20404;-38
2022/03/11 11:25:54;;;;;;;10.03;8.97;;;;;;;;;;7372675;19;20383;-38
2022/03/11 11:28:26;;;;;;;12.73;9.83;;;;;;;;;;7373400;19;20745;-38
2022/03/11 11:30:59;;;;;;;12.50;9.80;;;;;;;;;;7373994;19;21187;-38
2022/03/11 11:33:29;;;;;;;10.07;8.73;;;;;;;;;;7372716;19;20758;-38
2022/03/11 11:36:02;;;;;;;10.87;9.40;;;;;;;;;;7373710;19;20432;-38
2022/03/11 11:38:33;;;;;;;10.97;9.23;;;;;;;;;;7365541;19;20985;-38
2022/03/11 11:41:06;;;;;;;10.80;9.70;;;;;;;;;;7374398;19;20380;-38
2022/03/11 11:43:38;;;;;;;10.93;9.30;;;;;;;;;;7375285;19;20421;-39
2022/03/11 11:46:12;;;;;;;12.30;8.57;;;;;;;;;;7369501;19;20982;-39
2022/03/11 11:48:59;;;;;;;11.80;9.90;;;;;;;;;;7371580;19;20405;-38
2022/03/11 11:51:47;;;;;;;13.70;10.00;;;;;;;;;;7375107;19;20380;-38
2022/03/11 11:54:35;;;;;;;11.10;9.30;;;;;;;;;;7369819;19;20898;-38
2022/03/11 11:57:10;;;;;;;10.43;9.40;;;;;;;;;;7366816;19;20379;-39
2022/03/11 11:59:41;;;;;;;10.10;9.13;;;;;;;;;;7367932;19;20388;-38
2022/03/11 12:02:32;;;;;;;15.53;10.43;;;;;;;;;;7367190;19;20364;-39
2022/03/11 12:05:03;;;;;;;11.07;9.30;;;;;;;;;;7374431;19;20447;-39
2022/03/11 12:07:50;;;;;;;9.20;8.30;;;;;;;;;;7369686;19;20434;-39
2022/03/11 12:10:27;;;;;;;10.63;9.60;;;;;;;;;;7370574;19;20388;-39
2022/03/11 12:13:06;;;;;;;11.50;9.90;;;;;;;;;;7368991;19;20372;-39
2022/03/11 12:15:37;;;;;;;11.70;9.53;;;;;;;;;;7374057;19;20419;-39
2022/03/11 12:18:29;;;;;;;9.80;8.80;;;;;;;;;;7369728;19;20388;-38
2022/03/11 12:21:08;;;;;;;13.83;9.80;;;;;;;;;;7368358;19;20439;-38
2022/03/11 12:23:40;;;;;;;10.47;9.47;;;;;;;;;;7367425;19;20383;-38
2022/03/11 12:26:11;;;;;;;10.17;9.17;;;;;;;;;;7371656;19;21009;-38
2022/03/11 12:28:42;;;;;;;11.70;9.87;;;;;;;;;;7367283;19;20380;-39
2022/03/11 12:31:13;;;;;;;13.20;9.70;;;;;;;;;;7364068;19;21120;-38
2022/03/11 12:33:44;;;;;;;11.50;9.37;;;;;;;;;;7375702;19;20432;-38
2022/03/11 12:36:19;;;;;;;11.07;9.40;;;;;;;;;;7367681;19;20384;-39
2022/03/11 12:38:49;;;;;;;35.23;13.70;;;;;;;;;;7374224;19;20380;-38
2022/03/11 12:41:21;;;;;;;11.53;9.57;;;;;;;;;;7373079;19;20379;-38
2022/03/11 12:43:50;;;;;;;11.23;9.90;;;;;;;;;;7367571;19;20936;-38
2022/03/11 12:46:22;;;;;;;11.77;10.57;;;;;;;;;;7370770;19;20384;-38
2022/03/11 12:48:52;;;;;;;11.30;9.30;;;;;;;;;;7371006;19;20792;-39
2022/03/11 12:51:27;;;;;;;10.77;9.63;;;;;;;;;;7375001;19;20849;-39
2022/03/11 12:53:57;;;;;;;11.70;10.03;;;;;;;;;;7362438;19;20712;-39
2022/03/11 12:56:27;;;;;;;19.20;10.03;;;;;;;;;;7375398;19;20372;-39
2022/03/11 12:59:01;;;;;;;10.97;9.97;;;;;;;;;;7384418;19;20472;-39
2022/03/11 13:01:30;;;;;;;12.20;9.70;;;;;;;;;;7381918;19;20384;-38
2022/03/11 13:04:00;;;;;;;12.10;10.50;;;;;;;;;;7380979;19;20371;-38
2022/03/11 13:06:34;;;;;;;11.30;10.10;;;;;;;;;;7381001;19;20912;-39
2022/03/11 13:09:06;;;;;;;10.60;9.60;;;;;;;;;;7376842;19;20375;-38
2022/03/11 13:11:39;;;;;;;9.97;8.97;;;;;;;;;;7379494;19;20921;-38
2022/03/11 13:14:11;;;;;;;10.20;9.37;;;;;;;;;;7381643;19;20368;-38
2022/03/11 13:16:41;;;;;;;11.10;9.80;;;;;;;;;;7351131;19;20819;-38
2022/03/11 13:19:11;;;;;;;11.30;9.47;;;;;;;;;;7371672;19;20376;-38
2022/03/11 13:21:46;;;;;;;10.53;9.53;;;;;;;;;;7380003;19;20431;-39
2022/03/11 13:24:17;;;;;;;11.40;10.30;;;;;;;;;;7380959;19;20422;-38
2022/03/11 13:26:46;;;;;;;11.10;10.00;;;;;;;;;;7378650;19;20897;-38
2022/03/11 13:29:16;;;;;;;10.63;9.50;;;;;;;;;;7375067;19;20439;-37
2022/03/11 13:31:45;;;;;;;11.63;9.77;;;;;;;;;;7375840;19;20395;-38
2022/03/11 13:34:17;;;;;;;12.47;10.20;;;;;;;;;;7371660;19;20464;-38
2022/03/11 13:36:50;;;;;;;11.60;10.00;;;;;;;;;;7382425;19;20376;-38
2022/03/11 13:39:24;;;;;;;14.50;11.00;;;;;;;;;;7379756;19;20367;-38
2022/03/11 13:41:55;;;;;;;11.43;9.60;;;;;;;;;;7378304;19;20416;-38
2022/03/11 13:44:26;;;;;;;10.70;9.60;;;;;;;;;;7376420;19;20729;-38
2022/03/11 13:46:57;;;;;;;10.27;9.23;;;;;;;;;;7374887;19;20368;-38
2022/03/11 13:49:27;;;;;;;12.50;8.77;;;;;;;;;;7374279;19;22818;-38
2022/03/11 13:52:00;;;;;;;11.10;9.70;;;;;;;;;;7373039;19;21030;-39
2022/03/11 13:54:32;;;;;;;11.50;10.40;;;;;;;;;;7379990;19;20413;-38
2022/03/11 13:57:20;;;;;;;11.87;10.37;;;;;;;;;;7377086;19;20752;-38
2022/03/11 13:59:54;;;;;;;12.17;10.77;;;;;;;;;;7375988;19;20371;-38
2022/03/11 14:02:27;;;;;;;11.73;9.10;;;;;;;;;;7379225;19;20419;-38
2022/03/11 14:05:12;;;;;;;11.57;9.97;;;;;;;;;;7382628;19;20775;-38
2022/03/11 14:07:45;;;;;;;12.60;10.47;;;;;;;;;;7376704;19;20417;-38
2022/03/11 14:10:19;;;;;;;11.63;10.13;;;;;;;;;;7377704;19;20784;-38
2022/03/11 14:13:01;;;;;;;11.30;10.20;;;;;;;;;;7379689;19;20379;-38
2022/03/11 14:15:33;;;;;;;16.50;10.80;;;;;;;;;;7384728;19;20375;-38
2022/03/11 14:18:03;;;;;;;12.33;10.57;;;;;;;;;;7378409;19;21008;-37
2022/03/11 14:20:35;;;;;;;12.47;11.20;;;;;;;;;;7382706;19;20712;-38
2022/03/11 14:23:09;;;;;;;13.87;10.60;;;;;;;;;;7387570;19;20371;-38
2022/03/11 14:25:41;;;;;;;14.10;11.40;;;;;;;;;;7381607;19;20379;-37
2022/03/11 14:28:13;;;;;;;10.17;9.13;;;;;;;;;;7378404;19;20379;-37
2022/03/11 14:30:45;;;;;;;12.13;10.20;;;;;;;;;;7373435;19;20368;-37
2022/03/11 14:33:19;;;;;;;11.60;9.50;;;;;;;;;;7374797;19;21088;-38
2022/03/11 14:35:53;;;;;;;12.70;10.67;;;;;;;;;;7376407;19;20527;-38
2022/03/11 14:38:30;;;;;;;13.00;10.40;;;;;;;;;;7378148;19;20416;-37
2022/03/11 14:41:00;;;;;;;12.67;9.40;;;;;;;;;;7376799;19;20913;-38
2022/03/11 14:43:32;;;;;;;12.50;9.77;;;;;;;;;;7375104;19;20405;-37
2022/03/11 14:46:03;;;;;;;10.87;9.07;;;;;;;;;;7373320;19;20364;-37
2022/03/11 14:48:35;;;;;;;14.63;10.00;;;;;;;;;;7375364;19;20835;-37
2022/03/11 14:51:10;;;;;;;11.50;8.80;;;;;;;;;;7375000;19;20912;-37
2022/03/11 14:53:42;;;;;;;15.13;9.70;;;;;;;;;;7374600;19;20372;-37